Weather History for Fort Morgan, CO

Change the Weather History Date:

Wednesday, January 22, 2014

  Actual Average (KAKO) Record (KAKO)
Temperature  
Mean Temperature 28 °F 29 °F  
Max Temperature 44 °F 40 °F 70 °F (1950)
Min Temperature 12 °F 17 °F -11 °F (1962)
Degree Days  
Heating Degree Days 37    
Month to date heating degree days  
Cooling Degree Days 0    
Month to date cooling degree days  
Moisture  
Dew Point 16 °F    
Average Humidity 59    
Maximum Humidity 92    
Minimum Humidity 29    
Precipitation  
Precipitation 0.00 in 0.01 in 0.19 in (1965)
Month to date precipitation 0.19  
Year to date precipitation 0.19  
Sea Level Pressure  
Sea Level Pressure 30.16 in    
Wind  
Wind Speed 9 mph (NNE)    
Max Wind Speed 18 mph    
Max Gust Speed 24 mph    
Visibility 9 miles    
Events Snow    
T = Trace of Precipitation, MM = Missing Value Source: NWS Daily Summary

Daily Weather History Graph

Daily Weather History Graph

Search for Another Location

Airport:

Trip Planner

Search our weather history database for the weather conditions in past years. The results will help you decide how hot, cold, wet, or windy it might be!

Date:

Astronomy

Jan. 22, 2014 Rise Set
Actual Time 7:12 AM MST 5:01 PM MST
Civil Twilight 6:42 AM MST 5:31 PM MST
Nautical Twilight 6:09 AM MST 6:04 PM MST
Astronomical Twilight 5:37 AM MST 6:36 PM MST
Moon 11:37 PM MST (1/22) 10:13 AM MST (1/22)
Length of Visible Light 10h 48m
Length of Day
9h 49m
Waning Gibbous, 65% of the Moon is Illuminated
Jan 22
Waning Gibbous
Jan 23
Last Quarter
Jan 30
New
Feb 6
First Quarter
Feb 14
Full

Hourly Weather History & Observations

Time (MST) Temp. Windchill Dew Point Humidity Pressure Visibility Wind Dir Wind Speed Gust Speed Precip Events Conditions
12:15 AM 29.1 °F 24.1 °F 12.0 °F 49% 30.14 in 10.0 mi West 4.6 mph - N/A   Clear
12:35 AM 27.7 °F 20.4 °F 12.2 °F 52% 30.14 in 10.0 mi WNW 6.9 mph - N/A   Clear
12:55 AM 28.6 °F 20.7 °F 12.6 °F 51% 30.14 in 10.0 mi West 8.1 mph - N/A   Clear
1:15 AM 27.9 °F 19.1 °F 12.4 °F 52% 30.13 in 10.0 mi WNW 9.2 mph - N/A   Clear
1:35 AM 25.5 °F 18.7 °F 11.3 °F 55% 30.13 in 10.0 mi WNW 5.8 mph - N/A   Clear
1:55 AM 27.1 °F 19.7 °F 11.1 °F 51% 30.14 in 10.0 mi West 6.9 mph - N/A   Clear
2:15 AM 26.6 °F 16.8 °F 12.9 °F 56% 30.14 in 10.0 mi WNW 10.4 mph - N/A   Clear
2:55 AM 25.5 °F 16.2 °F 13.1 °F 59% 30.13 in 10.0 mi WNW 9.2 mph - N/A   Clear
3:15 AM 26.1 °F 18.4 °F 11.8 °F 55% 30.13 in 10.0 mi WNW 6.9 mph - N/A   Clear
3:35 AM 25.9 °F 16.6 °F 11.3 °F 54% 30.13 in 10.0 mi NW 9.2 mph - N/A   Clear
3:55 AM 26.6 °F 19.1 °F 11.3 °F 53% 30.13 in 10.0 mi NW 6.9 mph - N/A   Clear
4:15 AM 25.5 °F 19.9 °F 10.6 °F 53% 30.12 in 10.0 mi NW 4.6 mph - N/A   Clear
4:35 AM 27.5 °F 23.6 °F 10.8 °F 49% 30.12 in 10.0 mi West 3.5 mph - N/A   Clear
4:55 AM 30.0 °F 24.1 °F 10.4 °F 44% 30.13 in 10.0 mi West 5.8 mph - N/A   Clear
5:15 AM 23.2 °F 18.7 °F 10.9 °F 60% 30.13 in 10.0 mi West 3.5 mph - N/A   Clear
5:35 AM 19.9 °F 14.9 °F 12.2 °F 72% 30.14 in 10.0 mi West 3.5 mph - N/A   Clear
5:55 AM 20.3 °F 11.5 °F 12.0 °F 70% 30.14 in 10.0 mi West 6.9 mph - N/A   Clear
6:15 AM 21.0 °F 12.4 °F 12.2 °F 69% 30.14 in 10.0 mi WNW 6.9 mph - N/A   Clear
6:35 AM 21.9 °F 13.4 °F 11.7 °F 65% 30.14 in 10.0 mi WNW 6.9 mph - N/A   Clear
6:55 AM 23.0 °F 14.7 °F 10.9 °F 60% 30.14 in 10.0 mi WNW 6.9 mph - N/A   Clear
7:15 AM 23.0 °F - 11.1 °F 60% 30.13 in 10.0 mi Calm Calm - N/A   Clear
7:35 AM 23.9 °F - 11.5 °F 59% 30.14 in 10.0 mi Calm Calm - N/A   Clear
7:55 AM 26.8 °F - 12.7 °F 56% 30.14 in 10.0 mi Calm Calm - N/A   Clear
8:15 AM 25.3 °F - 14.4 °F 63% 30.14 in 10.0 mi Calm Calm - N/A   Clear
8:35 AM 28.4 °F - 14.9 °F 57% 30.15 in 10.0 mi Calm Calm - N/A   Clear
8:55 AM 28.9 °F - 15.4 °F 57% 30.15 in 10.0 mi Calm Calm - N/A   Clear
9:15 AM 33.3 °F 28.9 °F 19.8 °F 58% 30.15 in 10.0 mi North 4.6 mph - N/A   Clear
9:35 AM 35.1 °F - 18.9 °F 52% 30.16 in 10.0 mi Calm Calm - N/A   Clear
9:55 AM 37.4 °F - 19.6 °F 49% 30.16 in 10.0 mi Calm Calm - N/A   Clear
10:15 AM 40.3 °F 33.4 °F 21.7 °F 48% 30.16 in 10.0 mi North 11.5 mph 16.1 mph N/A   Clear
10:35 AM 41.2 °F 35.5 °F 21.7 °F 46% 30.16 in 10.0 mi NNE 9.2 mph - N/A   Clear
10:55 AM 42.3 °F 38.6 °F 21.6 °F 44% 30.14 in 10.0 mi NNE 5.8 mph - N/A   Clear
11:15 AM 44.2 °F 38.4 °F 21.0 °F 40% 30.13 in 10.0 mi North 11.5 mph - N/A   Clear
11:35 AM 43.9 °F 37.9 °F 21.2 °F 41% 30.12 in 10.0 mi NNE 11.5 mph - N/A   Clear
11:55 AM 44.6 °F 39.2 °F 22.1 °F 41% 30.11 in 10.0 mi NE 10.4 mph - N/A   Clear
12:15 PM 44.8 °F 38.7 °F 22.1 °F 41% 30.11 in 10.0 mi NNE 12.7 mph - N/A   Scattered Clouds
12:35 PM 44.4 °F 39.0 °F 21.7 °F 41% 30.09 in 10.0 mi NE 10.4 mph - N/A   Scattered Clouds
12:55 PM 44.8 °F 39.4 °F 21.0 °F 39% 30.08 in 10.0 mi North 10.4 mph - N/A   Scattered Clouds
1:15 PM 44.1 °F 37.7 °F 21.6 °F 41% 30.08 in 10.0 mi NNE 12.7 mph 17.3 mph N/A   Clear
1:35 PM 44.2 °F 37.3 °F 23.0 °F 43% 30.07 in 10.0 mi NE 15.0 mph - N/A   Scattered Clouds
1:55 PM 41.4 °F 32.7 °F 19.6 °F 42% 30.08 in 10.0 mi NE 18.4 mph 24.2 mph N/A   Mostly Cloudy
2:15 PM 40.6 °F 32.3 °F 13.3 °F 33% 30.08 in 10.0 mi NE 16.1 mph - N/A   Mostly Cloudy
2:35 PM 40.1 °F 31.3 °F 9.7 °F 29% 30.09 in 10.0 mi NE 17.3 mph 21.9 mph N/A   Mostly Cloudy
2:55 PM 39.4 °F 31.4 °F 9.5 °F 29% 30.09 in 10.0 mi NE 13.8 mph 20.7 mph N/A   Overcast
3:15 PM 38.7 °F 29.5 °F 9.5 °F 30% 30.09 in 10.0 mi NNE 17.3 mph 21.9 mph N/A   Overcast
3:35 PM 37.6 °F 28.1 °F 11.7 °F 34% 30.10 in 10.0 mi NE 17.3 mph - N/A   Overcast
3:55 PM 36.0 °F 26.0 °F 10.4 °F 35% 30.11 in 10.0 mi NE 17.3 mph 23.0 mph N/A   Overcast
4:15 PM 34.7 °F 24.3 °F 11.7 °F 39% 30.12 in 10.0 mi NE 17.3 mph - N/A   Overcast
4:35 PM 33.8 °F 23.5 °F 13.3 °F 43% 30.13 in 10.0 mi NE 16.1 mph - N/A   Mostly Cloudy
4:55 PM 32.2 °F 21.4 °F 18.1 °F 56% 30.13 in 10.0 mi ENE 16.1 mph - N/A   Mostly Cloudy
5:15 PM 31.5 °F 20.5 °F 19.9 °F 62% 30.14 in 10.0 mi NE 16.1 mph - N/A   Overcast
5:35 PM 30.2 °F 19.3 °F 21.6 °F 70% 30.16 in 10.0 mi ENE 15.0 mph - N/A   Overcast
5:55 PM 29.8 °F 20.3 °F 21.4 °F 71% 30.16 in 10.0 mi ENE 11.5 mph - N/A   Overcast
6:15 PM 29.3 °F 20.2 °F 21.7 °F 73% 30.17 in 10.0 mi ENE 10.4 mph - N/A   Overcast
6:35 PM 28.9 °F 18.6 °F 21.7 °F 74% 30.18 in 10.0 mi ENE 12.7 mph - N/A   Overcast
6:55 PM 28.2 °F 19.5 °F 21.9 °F 77% 30.19 in 10.0 mi ENE 9.2 mph - N/A   Overcast
7:15 PM 28.0 °F 20.8 °F 21.9 °F 78% 30.20 in 10.0 mi ENE 6.9 mph - N/A   Overcast
7:35 PM 27.9 °F 19.1 °F 22.1 °F 79% 30.20 in 10.0 mi ENE 9.2 mph - N/A   Overcast
7:55 PM 27.5 °F 16.8 °F 22.3 °F 81% 30.22 in 7.0 mi East 12.7 mph 17.3 mph N/A Snow Light Snow
8:15 PM 26.4 °F 15.0 °F 22.1 °F 84% 30.23 in 2.0 mi East 13.8 mph - N/A Snow Light Snow
8:35 PM 25.2 °F 12.0 °F 22.1 °F 88% 30.23 in 2.0 mi East 17.3 mph - N/A Snow Light Snow
8:55 PM 22.5 °F 8.5 °F 20.3 °F 91% 30.25 in 2.5 mi East 17.3 mph 23.0 mph N/A Snow Light Snow
9:15 PM 21.2 °F 6.8 °F 19.2 °F 92% 30.26 in 2.5 mi East 17.3 mph 21.9 mph N/A Snow Light Snow
9:35 PM 19.0 °F 4.5 °F 16.7 °F 91% 30.28 in 1.5 mi ENE 16.1 mph 21.9 mph N/A Snow Light Snow
9:55 PM 17.1 °F 1.0 °F 14.4 °F 89% 30.31 in 1.8 mi ENE 18.4 mph 24.2 mph N/A Snow Light Snow
10:15 PM 15.6 °F -0.4 °F 13.1 °F 90% 30.32 in 1.2 mi ENE 17.3 mph 21.9 mph N/A Snow Snow
10:35 PM 14.2 °F -2.7 °F 11.5 °F 89% 30.33 in 1.0 mi ENE 18.4 mph - N/A Snow Light Snow
10:55 PM 13.6 °F -1.3 °F 10.9 °F 89% 30.34 in 1.5 mi ENE 13.8 mph - N/A Snow Light Snow
11:15 PM 13.1 °F -3.1 °F 10.6 °F 90% 30.35 in 1.5 mi ENE 16.1 mph - N/A Snow Light Snow
11:35 PM 12.7 °F -4.1 °F 9.9 °F 88% 30.35 in 1.5 mi East 17.3 mph - N/A Snow Light Snow
11:55 PM 12.0 °F -4.0 °F 9.3 °F 89% 30.35 in 2.0 mi East 15.0 mph - N/A Snow Light Snow